createdAt,value
2018-11-06T00:02:18.495Z,4.70
2018-11-06T00:04:51.973Z,5.55
2018-11-06T00:07:20.282Z,5.40
2018-11-06T00:09:48.391Z,7.57
2018-11-06T00:23:40.949Z,9.40
2018-11-06T00:26:09.150Z,6.00
2018-11-06T00:28:37.289Z,6.75
2018-11-06T00:31:05.699Z,5.90
2018-11-06T00:33:33.856Z,5.87
2018-11-06T00:36:01.993Z,5.70
2018-11-06T00:38:30.116Z,6.83
2018-11-06T00:40:58.305Z,6.47
2018-11-06T00:43:26.465Z,6.13
2018-11-06T00:45:54.558Z,5.33
2018-11-06T00:48:22.714Z,6.60
2018-11-06T00:50:50.829Z,5.53
2018-11-06T00:53:18.967Z,5.80
2018-11-06T00:55:47.088Z,7.17
2018-11-06T00:58:15.327Z,5.47
2018-11-06T01:00:43.767Z,5.30
2018-11-06T01:03:11.932Z,7.87
2018-11-06T01:05:40.082Z,5.30
2018-11-06T01:08:08.203Z,7.40
2018-11-06T01:10:36.366Z,5.70
2018-11-06T01:13:04.772Z,5.97
2018-11-06T01:15:32.907Z,7.23
2018-11-06T01:18:00.983Z,7.10
2018-11-06T01:20:29.064Z,5.57
2018-11-06T01:22:57.134Z,4.50
2018-11-06T01:25:25.286Z,6.40
2018-11-06T01:27:53.429Z,5.00
2018-11-06T01:30:21.570Z,4.87
2018-11-06T01:32:49.716Z,5.03
2018-11-06T01:35:18.061Z,6.80
2018-11-06T01:37:46.783Z,6.00
2018-11-06T01:40:16.101Z,6.70
2018-11-06T01:42:44.883Z,6.37
2018-11-06T01:45:14.179Z,6.35
2018-11-06T01:47:42.451Z,8.60
2018-11-06T01:50:13.605Z,7.20
2018-11-06T01:52:43.008Z,5.57
2018-11-06T01:55:11.904Z,4.83
2018-11-06T01:57:40.268Z,6.47
2018-11-06T02:00:11.930Z,5.20
2018-11-06T02:02:40.200Z,5.23
2018-11-06T02:05:09.824Z,5.53
2018-11-06T02:07:37.976Z,5.63
2018-11-06T02:10:06.902Z,5.53
2018-11-06T02:12:35.820Z,4.85
2018-11-06T02:15:04.262Z,7.13
2018-11-06T02:17:32.357Z,6.30
2018-11-06T02:20:00.496Z,5.90
2018-11-06T02:22:28.624Z,6.07
2018-11-06T02:24:56.818Z,6.50
2018-11-06T02:27:24.933Z,4.60
2018-11-06T02:29:53.037Z,6.37
2018-11-06T02:32:21.160Z,7.20
2018-11-06T02:34:49.342Z,5.37
2018-11-06T02:37:17.610Z,5.50
2018-11-06T02:39:45.782Z,5.63
2018-11-06T02:42:13.887Z,5.63
2018-11-06T02:44:42.026Z,7.40
2018-11-06T02:47:10.418Z,5.00
2018-11-06T02:49:38.794Z,4.87
2018-11-06T02:52:07.558Z,6.20
2018-11-06T02:54:35.866Z,5.90
2018-11-06T02:57:03.982Z,8.07
2018-11-06T02:59:32.182Z,5.33
2018-11-06T03:02:00.309Z,5.37
2018-11-06T03:04:28.451Z,6.70
2018-11-06T03:06:56.565Z,6.70
2018-11-06T03:09:24.692Z,6.17
2018-11-06T03:11:52.782Z,5.83
2018-11-06T03:14:20.918Z,6.45
2018-11-06T03:16:49.103Z,6.27
2018-11-06T03:19:17.154Z,6.60
2018-11-06T03:21:45.237Z,5.50
2018-11-06T03:24:13.374Z,5.90
2018-11-06T03:26:41.507Z,4.67
2018-11-06T03:29:10.069Z,5.53
2018-11-06T03:31:38.206Z,4.83
2018-11-06T03:34:06.546Z,6.27
2018-11-06T03:36:34.806Z,7.00
2018-11-06T03:39:03.322Z,5.40
2018-11-06T03:41:31.434Z,5.83
2018-11-06T03:43:59.521Z,5.03
2018-11-06T03:46:27.634Z,6.87
2018-11-06T03:48:55.729Z,6.60
2018-11-06T03:51:23.818Z,5.50
2018-11-06T03:53:51.953Z,5.40
2018-11-06T03:56:20.065Z,5.73
2018-11-06T03:58:48.177Z,4.77
2018-11-06T04:01:16.341Z,6.57
2018-11-06T04:03:44.461Z,7.50
2018-11-06T04:06:13.486Z,7.80
2018-11-06T04:08:41.569Z,6.30
2018-11-06T04:11:09.701Z,5.43
2018-11-06T04:13:37.832Z,6.97
2018-11-06T04:16:05.948Z,6.13
2018-11-06T04:18:34.023Z,5.03
2018-11-06T04:21:02.097Z,4.77
2018-11-06T04:23:30.290Z,5.20
2018-11-06T04:25:58.361Z,6.10
2018-11-06T04:28:26.483Z,5.60
2018-11-06T04:30:54.556Z,5.50
2018-11-06T04:33:22.659Z,6.47
2018-11-06T04:35:50.724Z,5.93
2018-11-06T04:38:18.816Z,5.47
2018-11-06T04:40:46.861Z,6.30
2018-11-06T04:43:15.029Z,11.57
2018-11-06T04:45:43.083Z,8.10
2018-11-06T04:48:11.178Z,5.53
2018-11-06T04:50:39.259Z,5.60
2018-11-06T04:53:07.353Z,5.13
2018-11-06T04:55:35.437Z,4.53
2018-11-06T04:58:03.554Z,6.27
2018-11-06T05:00:31.749Z,10.97
2018-11-06T05:03:00.035Z,5.80
2018-11-06T05:05:28.097Z,6.90
2018-11-06T05:07:56.161Z,5.90
2018-11-06T05:10:24.229Z,4.70
2018-11-06T05:12:52.335Z,6.53
2018-11-06T05:15:20.414Z,7.97
2018-11-06T05:17:48.489Z,7.30
2018-11-06T05:20:17.563Z,6.90
2018-11-06T05:22:46.291Z,7.37
2018-11-06T05:25:14.815Z,6.97
2018-11-06T05:27:42.808Z,9.13
2018-11-06T05:30:11.854Z,6.87
2018-11-06T05:32:41.212Z,8.87
2018-11-06T05:35:10.014Z,10.13
2018-11-06T05:37:38.344Z,10.27
2018-11-06T05:40:17.954Z,9.90
2018-11-06T05:42:46.061Z,10.40
2018-11-06T05:45:14.182Z,14.37
2018-11-06T05:47:42.314Z,10.33
2018-11-06T05:50:10.392Z,12.30
2018-11-06T05:52:38.492Z,7.60
2018-11-06T05:55:06.660Z,9.70
2018-11-06T05:57:34.746Z,8.70
2018-11-06T06:00:02.814Z,10.63
2018-11-06T06:02:30.882Z,16.97
2018-11-06T06:04:58.985Z,14.17
2018-11-06T06:07:27.060Z,10.50
2018-11-06T06:09:55.151Z,9.27
2018-11-06T06:12:24.145Z,9.50
2018-11-06T06:14:52.245Z,10.30
2018-11-06T06:17:20.390Z,15.90
2018-11-06T06:19:48.364Z,10.77
2018-11-06T06:22:16.454Z,26.50
2018-11-06T06:24:44.523Z,17.27
2018-11-06T06:27:12.592Z,8.80
2018-11-06T06:29:40.730Z,12.67
2018-11-06T06:32:08.986Z,11.83
2018-11-06T06:34:37.147Z,12.70
2018-11-06T06:37:05.935Z,18.40
2018-11-06T06:39:34.044Z,19.47
2018-11-06T06:42:02.109Z,11.43
2018-11-06T06:44:30.169Z,13.40
2018-11-06T06:46:58.245Z,13.20
2018-11-06T06:49:26.389Z,11.87
2018-11-06T06:51:54.460Z,10.67
2018-11-06T06:54:22.747Z,9.63
2018-11-06T06:56:50.741Z,8.47
2018-11-06T06:59:18.906Z,11.77
2018-11-06T07:01:47.085Z,14.30
2018-11-06T07:04:16.159Z,10.03
2018-11-06T07:06:44.256Z,10.10
2018-11-06T07:09:12.347Z,12.10
2018-11-06T07:11:40.464Z,8.63
2018-11-06T07:14:08.538Z,12.80
2018-11-06T07:16:36.617Z,7.80
2018-11-06T07:19:04.725Z,10.63
2018-11-06T07:21:32.804Z,10.67
2018-11-06T07:24:00.953Z,10.30
2018-11-06T07:26:29.526Z,10.72
2018-11-06T07:28:57.723Z,9.50
2018-11-06T07:31:26.165Z,9.30
2018-11-06T07:33:54.263Z,9.83
2018-11-06T07:36:22.452Z,7.73
2018-11-06T07:38:50.529Z,8.87
2018-11-06T07:41:18.713Z,10.63
2018-11-06T07:43:46.817Z,10.20
2018-11-06T07:46:15.014Z,10.53
2018-11-06T07:48:43.086Z,8.37
2018-11-06T07:51:11.201Z,8.47
2018-11-06T07:53:39.277Z,10.83
2018-11-06T07:56:07.368Z,8.00
2018-11-06T07:58:35.424Z,9.77
2018-11-06T08:01:03.513Z,9.90
2018-11-06T08:03:31.572Z,7.97
2018-11-06T08:05:59.658Z,8.67
2018-11-06T08:08:27.728Z,8.20
2018-11-06T08:10:55.813Z,9.90
2018-11-06T08:13:23.923Z,7.83
2018-11-06T08:15:51.978Z,5.30
2018-11-06T08:18:20.029Z,6.33
2018-11-06T08:20:48.162Z,8.35
2018-11-06T08:23:16.234Z,9.50
2018-11-06T08:25:44.305Z,7.62
2018-11-06T08:28:12.485Z,8.40
2018-11-06T08:30:40.648Z,10.60
2018-11-06T08:33:08.649Z,15.70
2018-11-06T08:35:36.726Z,15.40
2018-11-06T08:38:05.918Z,14.23
2018-11-06T08:40:33.998Z,15.37
2018-11-06T08:43:02.101Z,14.03
2018-11-06T08:45:30.158Z,14.90
2018-11-06T08:47:58.261Z,18.57
2018-11-06T08:50:26.286Z,17.63
2018-11-06T08:52:54.357Z,12.67
2018-11-06T08:55:22.445Z,12.10
2018-11-06T08:57:50.514Z,14.27
2018-11-06T09:00:19.308Z,11.50
2018-11-06T09:02:48.331Z,12.40
2018-11-06T09:05:17.065Z,11.57
2018-11-06T09:07:45.288Z,10.67
2018-11-06T09:10:14.250Z,9.77
2018-11-06T09:12:42.378Z,9.87
2018-11-06T09:15:11.906Z,12.70
2018-11-06T09:17:40.241Z,9.27
2018-11-06T09:20:10.956Z,9.17
2018-11-06T09:22:39.407Z,8.60
2018-11-06T09:25:08.841Z,13.97
2018-11-06T09:27:36.935Z,10.50
2018-11-06T09:30:05.588Z,9.37
2018-11-06T09:32:33.663Z,11.80
2018-11-06T09:35:01.785Z,7.90
2018-11-06T09:37:29.807Z,8.10
2018-11-06T09:39:57.926Z,9.20
2018-11-06T09:42:26.021Z,8.40
2018-11-06T09:44:54.119Z,7.53
2018-11-06T09:47:22.137Z,8.10
2018-11-06T09:49:50.202Z,7.97
2018-11-06T09:52:18.349Z,7.25
2018-11-06T09:54:46.397Z,7.00
2018-11-06T09:57:14.454Z,7.00
2018-11-06T09:59:42.522Z,7.83
2018-11-06T10:02:10.623Z,8.30
2018-11-06T10:04:38.725Z,9.37
2018-11-06T10:07:07.297Z,10.43
2018-11-06T10:09:35.165Z,7.43
2018-11-06T10:12:03.226Z,11.43
2018-11-06T10:14:31.294Z,6.60
2018-11-06T10:16:59.376Z,9.85
2018-11-06T10:19:27.455Z,5.67
2018-11-06T10:21:55.525Z,5.63
2018-11-06T10:24:23.610Z,7.13
2018-11-06T10:26:51.693Z,7.73
2018-11-06T10:29:19.811Z,8.18
2018-11-06T10:31:47.887Z,7.27
2018-11-06T10:34:15.966Z,6.17
2018-11-06T10:36:44.168Z,7.90
2018-11-06T10:39:13.623Z,8.43
2018-11-06T10:41:41.719Z,9.87
2018-11-06T10:44:09.827Z,8.67
2018-11-06T10:46:38.185Z,7.30
2018-11-06T10:49:06.718Z,10.63
2018-11-06T10:51:34.873Z,11.40
2018-11-06T10:54:02.909Z,7.70
2018-11-06T10:56:30.976Z,9.40
2018-11-06T10:58:59.048Z,8.73
2018-11-06T11:01:32.706Z,7.30
2018-11-06T11:04:06.123Z,6.00
2018-11-06T11:06:34.160Z,7.80
2018-11-06T11:09:02.265Z,8.13
2018-11-06T11:11:30.461Z,6.97
2018-11-06T11:13:58.669Z,9.57
2018-11-06T11:16:26.938Z,11.10
2018-11-06T11:18:55.114Z,5.77
2018-11-06T11:21:23.205Z,5.60
2018-11-06T11:23:51.303Z,7.37
2018-11-06T11:26:19.571Z,8.77
2018-11-06T11:28:47.665Z,7.50
2018-11-06T11:31:15.734Z,5.13
2018-11-06T11:33:43.848Z,9.63
2018-11-06T11:36:11.972Z,9.50
2018-11-06T11:38:40.142Z,6.67
2018-11-06T11:41:08.229Z,7.23
2018-11-06T11:43:36.340Z,6.53
2018-11-06T11:46:04.534Z,8.35
2018-11-06T11:48:32.655Z,6.23
2018-11-06T11:51:00.822Z,5.50
2018-11-06T11:53:29.075Z,7.93
2018-11-06T11:55:57.249Z,6.37
2018-11-06T11:58:25.351Z,8.50
2018-11-06T12:00:53.442Z,7.63
2018-11-06T12:03:21.625Z,8.10
2018-11-06T12:05:49.689Z,4.93
2018-11-06T12:08:17.762Z,6.83
2018-11-06T12:10:45.851Z,9.97
2018-11-06T12:13:13.933Z,5.93
2018-11-06T12:15:42.020Z,6.87
2018-11-06T12:18:10.126Z,9.73
2018-11-06T12:20:38.178Z,6.30
2018-11-06T12:23:06.301Z,6.57
2018-11-06T12:25:34.538Z,13.23
2018-11-06T12:28:02.541Z,10.90
2018-11-06T12:30:30.791Z,10.90
2018-11-06T12:32:58.954Z,13.00
2018-11-06T12:35:27.051Z,8.53
2018-11-06T12:37:55.763Z,12.98
2018-11-06T12:40:23.852Z,5.50
2018-11-06T12:42:51.981Z,7.00
2018-11-06T12:45:20.023Z,7.87
2018-11-06T12:47:48.107Z,7.23
2018-11-06T12:50:16.375Z,5.73
2018-11-06T12:52:44.417Z,12.20
2018-11-06T12:55:14.738Z,14.53
2018-11-06T12:57:42.833Z,11.23
2018-11-06T13:00:14.384Z,9.00
2018-11-06T13:02:42.605Z,12.90
2018-11-06T13:05:10.926Z,9.30
2018-11-06T13:07:40.229Z,8.10
2018-11-06T13:10:08.758Z,6.57
2018-11-06T13:12:36.898Z,7.60
2018-11-06T13:15:05.755Z,7.83
2018-11-06T13:17:33.897Z,7.80
2018-11-06T13:20:02.205Z,5.73
2018-11-06T13:22:30.331Z,6.50
2018-11-06T13:24:58.950Z,6.97
2018-11-06T13:27:27.014Z,4.33
2018-11-06T13:29:55.263Z,6.17
2018-11-06T13:32:23.652Z,5.53
2018-11-06T13:34:51.930Z,9.53
2018-11-06T13:37:20.277Z,5.53
2018-11-06T13:39:48.628Z,6.53
2018-11-06T13:42:16.709Z,7.43
2018-11-06T13:44:44.986Z,6.10
2018-11-06T13:47:12.967Z,7.40
2018-11-06T13:49:41.194Z,5.40
2018-11-06T13:52:09.523Z,6.37
2018-11-06T13:54:37.678Z,9.03
2018-11-06T13:57:05.875Z,5.53
2018-11-06T13:59:34.037Z,4.90
2018-11-06T14:02:02.201Z,5.00
2018-11-06T14:04:30.300Z,7.80
2018-11-06T14:06:58.460Z,6.70
2018-11-06T14:09:26.510Z,4.73
2018-11-06T14:11:54.622Z,4.80
2018-11-06T14:14:22.736Z,10.53
2018-11-06T14:16:50.867Z,4.77
2018-11-06T14:19:18.963Z,6.70
2018-11-06T14:21:47.049Z,8.23
2018-11-06T14:24:15.168Z,11.78
2018-11-06T14:26:43.234Z,10.15
2018-11-06T14:29:11.406Z,7.10
2018-11-06T14:31:39.458Z,6.30
2018-11-06T14:34:07.535Z,5.63
2018-11-06T14:36:35.601Z,6.33
2018-11-06T14:39:06.778Z,7.05
2018-11-06T14:41:35.017Z,6.60
2018-11-06T14:44:03.074Z,7.67
2018-11-06T14:46:31.341Z,9.37
2018-11-06T14:48:59.517Z,5.80
2018-11-06T14:51:27.501Z,6.10
2018-11-06T14:53:55.599Z,4.80
2018-11-06T14:56:23.725Z,11.63
2018-11-06T14:58:51.913Z,7.27
2018-11-06T15:01:20.100Z,6.83
2018-11-06T15:03:48.270Z,7.10
2018-11-06T15:06:16.455Z,7.47
2018-11-06T15:08:44.541Z,5.08
2018-11-06T15:11:12.621Z,7.60
2018-11-06T15:13:40.711Z,13.33
2018-11-06T15:16:09.082Z,6.37
2018-11-06T15:18:37.151Z,6.63
2018-11-06T15:21:05.808Z,3.67
2018-11-06T15:23:33.909Z,5.53
2018-11-06T15:26:02.140Z,5.33
2018-11-06T15:28:30.208Z,6.87
2018-11-06T15:30:58.302Z,7.27
2018-11-06T15:33:26.515Z,13.10
2018-11-06T15:35:54.707Z,6.80
2018-11-06T15:38:22.789Z,13.40
2018-11-06T15:40:51.019Z,13.88
2018-11-06T15:43:18.969Z,5.30
2018-11-06T15:45:47.071Z,3.40
2018-11-06T15:48:15.158Z,6.83
2018-11-06T15:50:43.245Z,7.73
2018-11-06T15:53:11.343Z,6.40
2018-11-06T15:55:39.421Z,7.60
2018-11-06T15:58:07.490Z,8.20
2018-11-06T16:00:35.571Z,4.43
2018-11-06T16:03:03.693Z,5.95
2018-11-06T16:05:31.836Z,6.30
2018-11-06T16:07:59.950Z,5.20
2018-11-06T16:10:27.992Z,8.53
2018-11-06T16:12:56.078Z,10.07
2018-11-06T16:15:24.308Z,11.87
2018-11-06T16:20:25.762Z,8.87
2018-11-06T16:22:53.858Z,5.33
2018-11-06T16:25:21.951Z,5.42
2018-11-06T16:27:50.067Z,8.48
2018-11-06T16:30:19.531Z,5.70
2018-11-06T16:32:47.648Z,5.80
2018-11-06T16:35:17.081Z,6.07
2018-11-06T16:37:45.985Z,13.07
2018-11-06T16:40:15.547Z,14.33
2018-11-06T16:42:44.246Z,7.20
2018-11-06T16:45:14.595Z,11.10
2018-11-06T16:47:43.757Z,19.23
2018-11-06T16:50:13.218Z,20.67
2018-11-06T16:52:41.761Z,22.27
2018-11-06T16:55:10.682Z,38.60
2018-11-06T16:57:40.030Z,26.20
2018-11-06T17:00:10.445Z,25.77
2018-11-06T17:02:38.531Z,29.10
2018-11-06T17:05:07.181Z,22.60
2018-11-06T17:07:35.253Z,27.60
2018-11-06T17:10:03.371Z,24.52
2018-11-06T17:12:31.445Z,26.13
2018-11-06T17:14:59.546Z,23.33
2018-11-06T17:17:27.747Z,20.15
2018-11-06T17:19:55.770Z,18.98
2018-11-06T17:22:23.868Z,19.73
2018-11-06T17:24:52.044Z,28.60
2018-11-06T17:27:20.167Z,37.00
2018-11-06T17:29:49.003Z,50.40
2018-11-06T17:32:17.097Z,47.40
2018-11-06T17:34:45.247Z,40.00
2018-11-06T17:37:13.410Z,39.50
2018-11-06T17:39:41.660Z,38.87
2018-11-06T17:42:09.813Z,36.30
2018-11-06T17:44:37.982Z,41.80
2018-11-06T17:47:06.144Z,39.55
2018-11-06T17:49:34.269Z,41.20
2018-11-06T17:52:02.408Z,34.63
2018-11-06T17:54:30.486Z,36.53
2018-11-06T17:56:58.629Z,35.90
2018-11-06T17:59:26.761Z,33.35
2018-11-06T18:01:54.870Z,34.70
2018-11-06T18:04:23.079Z,34.03
2018-11-06T18:06:51.982Z,29.80
2018-11-06T18:09:20.100Z,31.97
2018-11-06T18:11:48.206Z,31.10
2018-11-06T18:14:16.265Z,30.03
2018-11-06T18:16:44.463Z,29.27
2018-11-06T18:19:12.553Z,25.57
2018-11-06T18:21:40.673Z,22.15
2018-11-06T18:24:08.777Z,23.33
2018-11-06T18:26:36.840Z,24.87
2018-11-06T18:29:05.240Z,28.20
2018-11-06T18:31:33.398Z,23.07
2018-11-06T18:34:01.462Z,36.43
2018-11-06T18:36:29.546Z,25.43
2018-11-06T18:38:57.654Z,22.93
2018-11-06T18:41:25.789Z,26.20
2018-11-06T18:43:54.597Z,28.50
2018-11-06T18:46:22.816Z,24.17
2018-11-06T18:48:51.000Z,24.30
2018-11-06T18:51:19.122Z,21.20
2018-11-06T18:53:47.399Z,23.00
2018-11-06T18:56:15.474Z,23.57
2018-11-06T18:58:43.646Z,23.93
2018-11-06T19:01:11.724Z,22.10
2018-11-06T19:03:39.801Z,17.93
2018-11-06T19:06:07.902Z,22.83
2018-11-06T19:08:36.058Z,19.40
2018-11-06T19:11:04.159Z,18.87
2018-11-06T19:13:32.256Z,23.40
2018-11-06T19:16:00.342Z,17.60
2018-11-06T19:18:28.452Z,16.23
2018-11-06T19:20:56.665Z,17.23
2018-11-06T19:23:24.792Z,18.47
2018-11-06T19:25:52.903Z,17.90
2018-11-06T19:28:21.046Z,19.20
2018-11-06T19:30:49.264Z,19.03
2018-11-06T19:33:17.352Z,24.07
2018-11-06T19:35:45.566Z,15.53
2018-11-06T19:38:13.694Z,17.12
2018-11-06T19:40:41.967Z,15.93
2018-11-06T19:43:09.950Z,21.80
2018-11-06T19:45:38.008Z,18.50
2018-11-06T19:48:06.121Z,15.67
2018-11-06T19:50:34.318Z,17.30
2018-11-06T19:53:02.462Z,18.63
2018-11-06T19:55:30.701Z,16.23
2018-11-06T19:57:59.405Z,15.27
2018-11-06T20:00:27.561Z,17.30
2018-11-06T20:02:55.632Z,16.33
2018-11-06T20:05:23.886Z,20.00
2018-11-06T20:07:52.568Z,15.40
2018-11-06T20:10:22.191Z,15.20
2018-11-06T20:12:51.411Z,11.00
2018-11-06T20:15:19.661Z,12.77
2018-11-06T20:17:47.907Z,14.60
2018-11-06T20:20:18.564Z,12.27
2018-11-06T20:22:46.682Z,11.80
2018-11-06T20:25:14.829Z,13.73
2018-11-06T20:27:43.295Z,13.87
2018-11-06T20:30:13.507Z,11.33
2018-11-06T20:32:41.884Z,18.83
2018-11-06T20:35:10.893Z,15.23
2018-11-06T20:37:40.794Z,10.67
2018-11-06T20:40:11.017Z,19.77
2018-11-06T20:42:39.602Z,12.60
2018-11-06T20:45:08.832Z,13.20
2018-11-06T20:47:37.038Z,10.40
2018-11-06T20:50:07.958Z,13.13
2018-11-06T20:52:36.030Z,14.77
2018-11-06T20:55:04.318Z,10.60
2018-11-06T20:57:32.472Z,10.63
2018-11-06T21:00:00.693Z,9.43
2018-11-06T21:02:28.897Z,9.60
2018-11-06T21:04:57.018Z,12.43
2018-11-06T21:07:25.109Z,10.37
2018-11-06T21:09:53.219Z,9.80
2018-11-06T21:12:21.294Z,10.95
2018-11-06T21:14:49.396Z,11.15
2018-11-06T21:17:17.461Z,9.33
2018-11-06T21:19:45.588Z,10.23
2018-11-06T21:22:13.689Z,12.43
2018-11-06T21:24:42.000Z,8.20
2018-11-06T21:27:10.222Z,8.17
2018-11-06T21:29:38.082Z,9.40
2018-11-06T21:32:07.282Z,9.53
2018-11-06T21:34:35.402Z,8.07
2018-11-06T21:37:03.564Z,10.67
2018-11-06T21:39:31.660Z,9.10
2018-11-06T21:41:59.890Z,11.17
2018-11-06T21:44:27.993Z,7.87
2018-11-06T21:46:56.162Z,8.83
2018-11-06T21:49:24.290Z,11.43
2018-11-06T21:51:52.427Z,8.08
2018-11-06T21:54:20.473Z,7.40
2018-11-06T21:56:48.583Z,6.55
2018-11-06T21:59:16.711Z,8.27
2018-11-06T22:01:44.821Z,8.23
2018-11-06T22:04:13.113Z,7.57
2018-11-06T22:06:41.220Z,8.37
2018-11-06T22:09:10.384Z,9.45
2018-11-06T22:11:38.476Z,9.90
2018-11-06T22:14:06.781Z,9.83
2018-11-06T22:16:34.929Z,8.37
2018-11-06T22:19:03.074Z,8.50
2018-11-06T22:21:31.170Z,8.00
2018-11-06T22:23:59.274Z,9.73
2018-11-06T22:26:27.518Z,7.10
2018-11-06T22:28:55.710Z,10.90
2018-11-06T22:31:23.961Z,7.70
2018-11-06T22:33:52.123Z,6.65
2018-11-06T22:36:20.213Z,9.47
2018-11-06T22:38:48.318Z,8.63
2018-11-06T22:41:16.411Z,8.20
2018-11-06T22:43:44.489Z,8.10
2018-11-06T22:46:12.701Z,8.70
2018-11-06T22:48:41.137Z,7.53
2018-11-06T22:51:09.198Z,10.37
2018-11-06T22:53:37.342Z,10.60
2018-11-06T22:56:05.509Z,8.47
2018-11-06T22:58:33.575Z,10.00
2018-11-06T23:01:07.105Z,6.93
2018-11-06T23:03:35.174Z,8.13
2018-11-06T23:06:03.474Z,9.00
2018-11-06T23:08:31.488Z,8.28
2018-11-06T23:10:59.591Z,5.50
2018-11-06T23:13:27.710Z,10.38
2018-11-06T23:15:55.845Z,8.07
2018-11-06T23:18:23.942Z,8.00
2018-11-06T23:20:52.006Z,8.13
2018-11-06T23:23:20.168Z,14.45
2018-11-06T23:25:48.320Z,6.20
2018-11-06T23:28:16.426Z,8.87
2018-11-06T23:30:44.485Z,6.40
2018-11-06T23:33:12.614Z,7.50
2018-11-06T23:35:40.829Z,7.93
2018-11-06T23:38:08.879Z,6.63
2018-11-06T23:40:37.977Z,5.70
2018-11-06T23:43:06.043Z,7.87
2018-11-06T23:45:34.111Z,5.70
2018-11-06T23:48:02.332Z,5.95
2018-11-06T23:50:30.454Z,6.67
2018-11-06T23:52:58.538Z,6.67
2018-11-06T23:55:26.618Z,5.70
2018-11-06T23:57:54.689Z,6.07
